Time;durP1;ratioP1;P1;durP2;ratioP2;P2;SDS_P1;SDS_P2;PMS_P1;PMS_P2;Temp;Humidity;BMP_temperature;BMP_pressure;BME280_temperature;BME280_humidity;BME280_pressure;Samples;Min_cycle;Max_cycle;Signal;HPM_P1;HPM_P2
2024/04/11 00:02:43;;;;;;;8.77;4.50;;;;;;;8.54;61.55;101800.91;11256230;26;20240;-75
2024/04/11 00:07:45;;;;;;;10.48;4.82;;;;;;;8.80;60.97;101788.91;11238640;26;20075;-76
2024/04/11 00:12:47;;;;;;;8.60;4.30;;;;;;;8.67;60.46;101781.56;11263755;26;20017;-76
2024/04/11 00:17:49;;;;;;;8.55;4.22;;;;;;;8.87;59.95;101777.84;11263586;26;20319;-76
2024/04/11 00:22:51;;;;;;;6.97;3.72;;;;;;;8.80;59.49;101793.34;11252007;26;20141;-77
2024/04/11 00:27:53;;;;;;;7.10;4.00;;;;;;;8.84;59.67;101784.22;11261037;26;20126;-76
2024/04/11 00:32:55;;;;;;;5.45;3.38;;;;;;;8.73;59.97;101784.78;11249832;26;20008;-76
2024/04/11 00:37:58;;;;;;;6.93;4.00;;;;;;;8.76;60.15;101773.91;11261942;26;20350;-76
2024/04/11 00:43:00;;;;;;;9.43;3.85;;;;;;;8.64;60.12;101776.34;11256903;26;20010;-77
2024/04/11 00:48:02;;;;;;;12.20;4.37;;;;;;;8.70;59.84;101776.03;11253643;26;21089;-76
2024/04/11 00:53:05;;;;;;;8.35;4.13;;;;;;;8.55;60.16;101783.03;11255507;26;20350;-77
2024/04/11 00:58:07;;;;;;;14.48;4.00;;;;;;;8.55;60.62;101786.56;11259379;26;20000;-76
2024/04/11 01:03:09;;;;;;;6.03;3.60;;;;;;;8.66;60.34;101783.34;11267157;26;20474;-76
2024/04/11 01:08:11;;;;;;;7.03;4.20;;;;;;;8.52;60.79;101773.34;11269422;26;20010;-77
2024/04/11 01:13:14;;;;;;;7.78;3.97;;;;;;;8.53;60.75;101777.75;11269944;26;20003;-76
2024/04/11 01:18:16;;;;;;;10.43;3.70;;;;;;;8.52;60.19;101777.81;11268706;26;19999;-76
2024/04/11 01:23:19;;;;;;;6.00;3.45;;;;;;;8.69;59.42;101779.66;11267818;26;20554;-76
2024/04/11 01:28:20;;;;;;;5.30;3.07;;;;;;;8.72;58.91;101777.69;11267224;26;20019;-76
2024/04/11 01:33:23;;;;;;;6.83;3.60;;;;;;;8.90;58.18;101775.88;11272025;26;20786;-77
2024/04/11 01:38:25;;;;;;;4.32;2.83;;;;;;;8.85;58.29;101780.59;11266320;26;20005;-76
2024/04/11 01:43:27;;;;;;;7.00;2.72;;;;;;;8.56;58.25;101774.94;11258143;26;20003;-76
2024/04/11 01:48:29;;;;;;;8.77;3.00;;;;;;;8.94;57.91;101776.56;11261835;26;19995;-76
2024/04/11 01:53:31;;;;;;;7.50;2.92;;;;;;;8.84;57.99;101777.06;11263016;26;20287;-77
2024/04/11 01:58:33;;;;;;;7.57;2.90;;;;;;;8.67;58.31;101762.81;11251892;26;20013;-76
2024/04/11 02:03:41;;;;;;;7.90;2.58;;;;;;;8.54;58.57;101771.44;11260934;26;20002;-76
2024/04/11 02:08:43;;;;;;;6.32;2.85;;;;;;;8.83;58.48;101774.44;11268136;26;20027;-76
2024/04/11 02:13:45;;;;;;;6.72;3.10;;;;;;;8.60;58.51;101786.34;11258352;26;20023;-76
2024/04/11 02:18:47;;;;;;;4.80;2.67;;;;;;;8.68;58.56;101802.91;11249519;26;20010;-75
2024/04/11 02:23:49;;;;;;;5.60;2.58;;;;;;;8.43;59.51;101797.00;11272736;26;20018;-75
2024/04/11 02:28:52;;;;;;;7.88;3.00;;;;;;;8.62;59.04;101787.13;11261489;26;20013;-75
2024/04/11 02:33:57;;;;;;;6.22;2.85;;;;;;;8.64;59.03;101795.09;11262053;26;20002;-76
2024/04/11 02:39:00;;;;;;;8.45;2.78;;;;;;;8.53;59.84;101798.31;11270380;26;20331;-76
2024/04/11 02:44:02;;;;;;;6.72;2.80;;;;;;;8.38;59.85;101789.19;11262864;26;20079;-76
2024/04/11 02:49:05;;;;;;;8.35;3.13;;;;;;;8.26;60.48;101785.31;11258039;26;20003;-76
2024/04/11 02:54:09;;;;;;;4.43;2.55;;;;;;;8.38;59.81;101782.03;11267975;26;20007;-77
2024/04/11 02:59:11;;;;;;;9.70;2.67;;;;;;;8.62;59.06;101784.47;11259342;26;20031;-77
2024/04/11 03:04:13;;;;;;;7.38;2.97;;;;;;;8.52;59.09;101778.69;11244981;26;20035;-77
2024/04/11 03:09:16;;;;;;;5.82;2.40;;;;;;;8.09;60.61;101778.13;11265447;26;19998;-77
2024/04/11 03:14:20;;;;;;;4.35;2.70;;;;;;;8.34;60.22;101772.44;11261691;26;19999;-76
2024/04/11 03:19:22;;;;;;;4.53;2.80;;;;;;;8.39;60.37;101777.53;11265383;26;20031;-76
2024/04/11 03:24:24;;;;;;;8.18;3.53;;;;;;;8.12;61.62;101769.09;11255799;26;20011;-77
2024/04/11 03:29:27;;;;;;;11.38;3.33;;;;;;;8.23;61.54;101771.19;11260387;26;20071;-76
2024/04/11 03:34:31;;;;;;;8.05;2.95;;;;;;;8.13;61.45;101768.13;11252162;26;20047;-78
2024/04/11 03:39:35;;;;;;;4.30;2.33;;;;;;;8.00;61.85;101762.50;11293084;26;20018;-76
2024/04/11 03:44:39;;;;;;;7.85;2.58;;;;;;;8.21;61.22;101771.28;11268186;26;20006;-77
2024/04/11 03:49:41;;;;;;;6.47;2.63;;;;;;;8.17;61.19;101756.31;11266406;26;20003;-76
2024/04/11 03:54:43;;;;;;;5.60;1.92;;;;;;;8.10;61.31;101768.28;11264343;26;20002;-76
2024/04/11 03:59:45;;;;;;;6.93;2.13;;;;;;;8.30;60.64;101764.63;11265014;26;20010;-76
2024/04/11 04:04:47;;;;;;;4.07;2.35;;;;;;;8.29;60.43;101757.53;11251707;26;20763;-76
2024/04/11 04:09:52;;;;;;;5.95;2.63;;;;;;;8.34;60.03;101758.19;11255669;26;20002;-76
2024/04/11 04:14:54;;;;;;;5.20;1.92;;;;;;;8.49;59.82;101762.78;11267968;26;20517;-76
2024/04/11 04:19:56;;;;;;;10.68;2.20;;;;;;;8.58;59.40;101759.66;11255537;26;20018;-76
2024/04/11 04:24:59;;;;;;;8.18;2.38;;;;;;;8.75;58.88;101765.94;11257496;26;20003;-75
2024/04/11 04:30:03;;;;;;;;;;;;;;;8.84;58.08;101766.34;11267904;26;20003;-77
2024/04/11 04:35:09;;;;;;;6.07;2.10;;;;;;;8.82;57.75;101753.97;11267905;26;19940;-76
2024/04/11 04:40:11;;;;;;;4.68;2.20;;;;;;;8.84;57.20;101736.00;11249578;26;20004;-76
2024/04/11 04:45:12;;;;;;;1.90;1.10;;;;;;;8.84;56.79;101738.69;11264550;26;20017;-76
2024/04/11 04:50:14;;;;;;;5.85;1.60;;;;;;;8.89;56.30;101744.66;11254812;26;20014;-77
2024/04/11 04:55:17;;;;;;;3.22;1.52;;;;;;;9.21;55.62;101732.22;11238109;26;20014;-76
2024/04/11 05:00:19;;;;;;;12.18;2.33;;;;;;;8.91;56.33;101731.16;11261150;26;20465;-76
2024/04/11 05:05:21;;;;;;;5.17;1.80;;;;;;;8.77;56.74;101738.13;11259618;26;20037;-76
2024/04/11 05:10:26;;;;;;;5.10;1.25;;;;;;;8.93;54.98;101740.88;11262844;26;20014;-76
2024/04/11 05:15:28;;;;;;;3.60;1.50;;;;;;;9.16;55.20;101733.41;11259758;26;20003;-76
2024/04/11 05:20:33;;;;;;;7.35;1.63;;;;;;;8.88;55.11;101731.34;11259379;26;19995;-76
2024/04/11 05:25:36;;;;;;;6.10;1.60;;;;;;;9.25;54.70;101728.44;11268735;26;20003;-76
2024/04/11 05:30:40;;;;;;;1.67;0.95;;;;;;;9.04;54.19;101746.53;11254088;26;19995;-76
2024/04/11 05:35:42;;;;;;;4.82;1.60;;;;;;;9.43;53.37;101737.28;11255479;26;20087;-76
2024/04/11 05:40:44;;;;;;;5.55;1.50;;;;;;;9.91;52.43;101740.03;11271487;26;20064;-77
2024/04/11 05:45:47;;;;;;;7.53;1.50;;;;;;;9.56;53.01;101744.66;11266359;26;20079;-75
2024/04/11 05:50:50;;;;;;;3.53;1.52;;;;;;;9.85;52.51;101743.03;11267408;26;20006;-76
2024/04/11 05:55:52;;;;;;;2.03;0.52;;;;;;;9.61;52.75;101751.50;11266315;26;20468;-76
2024/04/11 06:00:56;;;;;;;2.23;0.97;;;;;;;9.67;52.39;101761.88;11265901;26;20306;-76
2024/04/11 06:05:57;;;;;;;3.38;1.20;;;;;;;10.02;52.67;101764.44;11278880;26;20054;-76
2024/04/11 06:10:59;;;;;;;5.87;1.33;;;;;;;9.96;52.55;101775.53;11296289;26;20003;-77
2024/04/11 06:16:02;;;;;;;4.43;1.15;;;;;;;10.05;52.52;101772.31;11251036;26;20290;-77
2024/04/11 06:21:09;;;;;;;2.67;1.27;;;;;;;10.52;50.72;101774.06;11265485;26;20003;-76
2024/04/11 06:26:17;;;;;;;8.00;1.27;;;;;;;10.45;51.66;101769.16;11258873;26;20002;-77
2024/04/11 06:31:24;;;;;;;7.28;1.65;;;;;;;10.76;50.96;101760.16;11249639;26;20016;-77
2024/04/11 06:36:26;;;;;;;3.33;1.25;;;;;;;10.45;50.57;101774.53;11266758;26;20013;-76
2024/04/11 06:41:29;;;;;;;5.40;1.45;;;;;;;10.50;51.11;101775.97;11270829;26;20016;-76
2024/04/11 06:46:33;;;;;;;4.93;1.25;;;;;;;10.26;51.45;101785.50;11297617;26;20021;-76
2024/04/11 06:51:37;;;;;;;6.45;1.77;;;;;;;10.84;50.43;101779.38;11302976;26;20305;-75
2024/04/11 06:56:39;;;;;;;4.28;1.35;;;;;;;10.86;51.27;101782.84;11281212;26;20835;-76
2024/04/11 07:01:41;;;;;;;5.35;1.73;;;;;;;10.91;51.02;101782.53;11304210;26;20418;-78
2024/04/11 07:06:48;;;;;;;6.88;1.70;;;;;;;10.54;51.31;101804.41;11304307;26;20005;-77
2024/04/11 07:11:51;;;;;;;3.20;1.05;;;;;;;10.50;52.41;101796.63;11302537;26;19999;-76
2024/04/11 07:16:56;;;;;;;8.70;1.20;;;;;;;10.58;51.96;101795.19;11287352;26;20417;-76
2024/04/11 07:21:59;;;;;;;6.72;1.20;;;;;;;10.51;51.96;101801.06;11268415;26;20010;-77
2024/04/11 07:27:03;;;;;;;4.47;1.80;;;;;;;10.51;52.82;101793.00;11280017;26;20457;-77
2024/04/11 07:32:05;;;;;;;9.73;1.63;;;;;;;10.88;52.46;101799.72;11288448;26;19999;-77
2024/04/11 07:37:07;;;;;;;;;;;;;;;10.95;52.44;101794.88;11303666;26;20006;-77
2024/04/11 07:42:18;;;;;;;3.03;1.02;;;;;;;10.99;52.19;101801.78;11291920;26;19925;-76
2024/04/11 07:47:27;;;;;;;5.00;1.10;;;;;;;11.26;52.04;101807.31;11279580;26;20002;-76
2024/04/11 07:52:47;;;;;;;3.40;1.45;;;;;;;11.33;54.36;101814.06;11285417;26;20255;-76
2024/04/11 07:57:51;;;;;;;2.35;1.02;;;;;;;11.33;53.38;101827.53;11309377;26;20009;-77
2024/04/11 08:02:56;;;;;;;5.78;1.10;;;;;;;11.06;53.96;101836.28;11318588;26;20002;-76
2024/04/11 08:07:59;;;;;;;7.57;1.33;;;;;;;11.38;54.64;101837.97;11305087;26;20489;-77
2024/04/11 08:13:01;;;;;;;3.78;1.20;;;;;;;11.16;54.21;101849.19;11249446;26;20560;-75
2024/04/11 08:18:03;;;;;;;4.47;2.00;;;;;;;11.13;54.48;101857.44;11233725;26;20468;-77
2024/04/11 08:23:08;;;;;;;6.88;1.65;;;;;;;11.25;55.14;101862.09;11259737;26;20007;-76
2024/04/11 08:28:17;;;;;;;7.78;1.90;;;;;;;10.90;58.82;101867.72;11261071;26;20052;-76
2024/04/11 08:33:23;;;;;;;7.00;1.33;;;;;;;11.05;61.26;101872.19;11283532;26;20003;-77
2024/04/11 08:38:25;;;;;;;10.02;1.45;;;;;;;10.94;62.12;101863.00;11271077;26;20006;-77
2024/04/11 08:43:30;;;;;;;4.40;1.30;;;;;;;10.62;61.24;101868.47;11281962;26;20347;-77
2024/04/11 08:48:33;;;;;;;3.33;1.23;;;;;;;11.18;61.92;101849.97;11298792;26;19999;-76
2024/04/11 08:53:39;;;;;;;4.35;1.30;;;;;;;11.60;60.36;101859.94;11268935;26;20007;-77
2024/04/11 08:59:01;;;;;;;5.88;1.70;;;;;;;11.63;57.98;101861.56;11288634;26;19999;-77
2024/04/11 09:04:02;;;;;;;9.30;1.45;;;;;;;12.17;56.71;101862.56;11308370;26;20629;-76
2024/04/11 09:09:10;;;;;;;5.05;1.20;;;;;;;11.82;56.21;101853.19;11309771;26;20013;-77
2024/04/11 09:14:13;;;;;;;4.45;1.40;;;;;;;11.97;55.99;101873.78;11287655;26;20004;-76
2024/04/11 09:19:16;;;;;;;6.13;1.20;;;;;;;12.23;55.77;101861.34;11267902;26;20405;-76
2024/04/11 09:24:18;;;;;;;4.97;1.13;;;;;;;12.35;54.11;101876.72;11286272;26;20323;-76
2024/04/11 09:29:20;;;;;;;;;;;;;;;12.28;55.18;101870.00;11257846;26;20125;-77
2024/04/11 09:34:30;;;;;;;4.40;1.85;;;;;;;12.77;55.14;101882.94;11257925;26;20015;-77
2024/04/11 09:39:45;;;;;;;4.72;1.60;;;;;;;13.14;53.87;101882.31;11251617;26;20337;-76
2024/04/11 09:44:50;;;;;;;6.90;1.73;;;;;;;12.64;56.38;101878.47;11273342;26;19999;-77
2024/04/11 09:49:55;;;;;;;7.28;1.63;;;;;;;12.54;55.96;101887.19;11261231;26;19999;-77
2024/04/11 09:55:03;;;;;;;5.78;1.27;;;;;;;12.75;55.32;101886.72;11279501;26;20089;-76
2024/04/11 10:00:09;;;;;;;6.55;2.00;;;;;;;12.72;55.42;101903.94;11253996;26;20007;-77
2024/04/11 10:05:16;;;;;;;3.95;1.27;;;;;;;12.74;57.25;101891.25;11245999;26;20008;-76
2024/04/11 10:10:25;;;;;;;9.70;1.90;;;;;;;12.82;58.05;101902.38;11256114;26;19996;-76
2024/04/11 10:15:33;;;;;;;1.90;1.20;;;;;;;12.92;60.36;101908.03;11250892;26;20012;-77
2024/04/11 10:20:42;;;;;;;4.38;1.23;;;;;;;12.07;63.54;101919.84;11254181;26;20106;-77
2024/04/11 10:25:49;;;;;;;9.88;1.75;;;;;;;12.43;64.20;101902.31;11266086;26;20003;-77
2024/04/11 10:30:52;;;;;;;3.15;1.52;;;;;;;12.39;64.71;101910.59;11248329;26;20459;-77
2024/04/11 10:35:56;;;;;;;3.63;1.27;;;;;;;12.52;64.42;101926.84;11288893;26;20103;-77
2024/04/11 10:40:59;;;;;;;6.78;1.63;;;;;;;12.86;63.90;101912.97;11254361;26;20018;-76
2024/04/11 10:46:05;;;;;;;4.90;1.70;;;;;;;13.21;63.22;101921.38;11253145;26;20011;-77
2024/04/11 10:51:10;;;;;;;5.50;1.35;;;;;;;12.74;64.63;101928.13;11243480;26;20354;-77
2024/04/11 10:56:22;;;;;;;4.97;2.08;;;;;;;12.26;68.14;101933.88;11251266;26;20015;-75
2024/04/11 11:01:26;;;;;;;6.55;1.90;;;;;;;12.57;66.94;101934.63;11240048;26;19995;-76
2024/04/11 11:06:35;;;;;;;3.30;1.20;;;;;;;12.78;64.54;101921.56;11249744;26;20007;-76
2024/04/11 11:11:40;;;;;;;4.72;1.50;;;;;;;13.09;64.42;101916.84;11243489;26;20353;-77
2024/04/11 11:16:44;;;;;;;8.50;1.67;;;;;;;13.19;63.83;101920.63;11263518;26;20010;-76
2024/04/11 11:21:50;;;;;;;8.15;1.77;;;;;;;13.21;63.38;101916.00;11239415;26;20018;-76
2024/04/11 11:27:00;;;;;;;4.22;1.77;;;;;;;13.65;63.81;101918.34;11237712;26;20096;-75
2024/04/11 11:32:04;;;;;;;7.85;2.63;;;;;;;13.86;63.80;101934.03;11258961;26;20011;-75
2024/04/11 11:37:12;;;;;;;5.70;1.70;;;;;;;13.93;62.33;101932.59;11246536;26;20017;-76
2024/04/11 11:42:23;;;;;;;4.97;1.88;;;;;;;13.48;65.43;101932.16;11272549;26;20015;-76
2024/04/11 11:47:33;;;;;;;12.15;1.95;;;;;;;13.48;65.06;101948.34;11252893;26;20002;-76
2024/04/11 11:52:49;;;;;;;4.72;1.70;;;;;;;13.99;63.14;101939.41;11243563;26;20046;-75
2024/04/11 11:57:55;;;;;;;5.15;1.50;;;;;;;13.99;64.51;101928.59;11248020;26;20721;-76
2024/04/11 12:03:12;;;;;;;4.43;1.20;;;;;;;13.91;63.88;101927.31;11240089;26;20003;-76
2024/04/11 12:08:28;;;;;;;5.97;1.35;;;;;;;14.51;62.55;101933.00;11257842;26;20361;-76
2024/04/11 12:13:42;;;;;;;3.65;1.70;;;;;;;13.60;65.10;101920.53;11288524;26;20004;-76
2024/04/11 12:18:48;;;;;;;4.22;1.27;;;;;;;14.18;62.97;101925.44;11272261;26;20003;-76
2024/04/11 12:23:51;;;;;;;7.55;2.13;;;;;;;14.46;63.95;101929.78;11249948;26;20014;-76
2024/04/11 12:28:56;;;;;;;6.75;2.13;;;;;;;14.22;63.94;101933.22;11301927;26;20480;-75
2024/04/11 12:33:59;;;;;;;3.95;2.00;;;;;;;14.96;60.82;101933.25;11297656;26;20196;-76
2024/04/11 12:39:21;;;;;;;5.10;1.95;;;;;;;15.26;61.23;101933.63;11281790;26;20570;-76
2024/04/11 12:44:26;;;;;;;7.18;2.67;;;;;;;16.06;57.00;101923.84;11236987;26;19999;-77
2024/04/11 12:49:29;;;;;;;11.52;2.50;;;;;;;15.50;58.89;101932.75;11270454;26;19999;-76
2024/04/11 12:54:34;;;;;;;7.18;2.67;;;;;;;15.69;58.62;101929.47;11295591;26;20170;-75
2024/04/11 12:59:36;;;;;;;3.70;1.75;;;;;;;17.20;54.56;101921.69;11307160;26;20003;-75
2024/04/11 13:04:39;;;;;;;8.45;2.45;;;;;;;16.74;54.09;101919.22;11245293;26;20057;-76
2024/04/11 13:09:54;;;;;;;7.85;2.60;;;;;;;16.74;55.65;101930.09;11240138;26;20010;-76
2024/04/11 13:14:57;;;;;;;5.28;2.47;;;;;;;15.76;59.10;101935.28;11235980;26;20442;-76
2024/04/11 13:20:11;;;;;;;9.80;3.03;;;;;;;15.81;59.39;101919.53;11246636;26;20100;-76
2024/04/11 13:25:20;;;;;;;10.55;2.97;;;;;;;15.00;61.72;101948.28;11227082;26;20015;-76
2024/04/11 13:30:25;;;;;;;7.40;3.30;;;;;;;15.40;62.28;101934.44;11240177;26;20014;-76
2024/04/11 13:35:36;;;;;;;10.15;3.65;;;;;;;15.32;61.95;101950.38;11248893;26;20661;-76
2024/04/11 13:41:14;;;;;;;8.15;3.38;;;;;;;14.94;63.21;101941.47;11243805;26;20485;-76
2024/04/11 13:46:18;;;;;;;6.72;2.95;;;;;;;15.08;63.71;101926.03;11273176;26;20054;-77
2024/04/11 13:51:29;;;;;;;6.53;3.25;;;;;;;15.64;63.10;101910.88;11226294;26;20011;-76
2024/04/11 13:56:38;;;;;;;6.70;3.47;;;;;;;15.47;63.86;101925.75;11223202;26;20010;-76
2024/04/11 14:01:43;;;;;;;7.15;2.88;;;;;;;15.38;64.64;101922.88;11252294;26;20007;-77
2024/04/11 14:11:53;;;;;;;4.72;3.42;;;;;;;14.51;69.88;101936.56;11243265;26;20014;-76
2024/04/11 14:16:58;;;;;;;6.22;3.30;;;;;;;14.39;69.69;101934.75;11240660;26;20754;-75
2024/04/11 14:22:29;;;;;;;9.00;4.72;;;;;;;14.88;68.57;101928.41;11235335;26;20346;-76
2024/04/11 14:27:31;;;;;;;8.20;4.53;;;;;;;14.59;69.53;101944.13;11226990;26;20338;-77
2024/04/11 14:37:56;;;;;;;5.72;4.05;;;;;;;14.87;67.87;101951.06;11243800;26;20263;-77
2024/04/11 14:43:00;;;;;;;8.43;4.30;;;;;;;14.54;69.51;101949.00;11237301;26;20109;-77
2024/04/11 14:48:02;;;;;;;5.40;3.50;;;;;;;15.17;65.92;101947.88;11263065;26;20104;-77
2024/04/11 14:53:10;;;;;;;7.88;4.38;;;;;;;15.10;67.65;101937.63;11294699;26;20514;-76
2024/04/11 14:58:11;;;;;;;7.65;5.03;;;;;;;15.15;65.66;101928.19;11298321;26;19998;-77
2024/04/11 15:03:18;;;;;;;8.55;5.03;;;;;;;14.97;66.95;101935.84;11293368;26;19999;-77
2024/04/11 15:08:27;;;;;;;7.00;5.65;;;;;;;15.13;67.11;101940.09;11298985;26;20002;-77
2024/04/11 15:13:29;;;;;;;9.73;6.03;;;;;;;14.19;70.69;101935.31;11303814;25;20015;-77
2024/04/11 15:18:31;;;;;;;9.43;6.25;;;;;;;14.64;70.06;101932.94;11297418;26;20014;-77
2024/04/11 15:23:33;;;;;;;11.35;7.13;;;;;;;14.61;69.63;101928.63;11303268;26;20016;-78
2024/04/11 15:28:36;;;;;;;8.77;5.78;;;;;;;14.71;69.84;101939.63;11306329;26;20010;-77
2024/04/11 15:33:41;;;;;;;7.45;4.82;;;;;;;14.78;67.76;101922.84;11289864;26;20013;-77
2024/04/11 15:39:00;;;;;;;7.43;4.78;;;;;;;14.67;68.66;101922.75;11292159;26;20010;-77
2024/04/11 15:44:05;;;;;;;8.50;5.55;;;;;;;14.82;67.21;101924.31;11302179;26;20016;-78
2024/04/11 15:49:07;;;;;;;5.90;5.25;;;;;;;14.50;68.38;101921.31;11295198;26;20021;-77
2024/04/11 15:54:37;;;;;;;14.93;6.63;;;;;;;14.81;67.24;101903.69;11284151;26;20328;-77
2024/04/11 15:59:39;;;;;;;5.32;4.63;;;;;;;14.44;68.29;101910.09;11285561;26;20357;-77
2024/04/11 16:04:40;;;;;;;8.32;5.78;;;;;;;14.73;67.82;101895.28;11238835;26;20006;-77
2024/04/11 16:09:46;;;;;;;8.68;5.95;;;;;;;14.76;68.22;101907.72;11245965;26;19998;-78
2024/04/11 16:14:48;;;;;;;8.18;5.15;;;;;;;14.69;67.97;101914.53;11244950;26;20006;-77
2024/04/11 16:19:52;;;;;;;6.82;4.95;;;;;;;14.34;69.52;101920.66;11247631;26;20869;-77
2024/04/11 16:24:54;;;;;;;9.82;4.97;;;;;;;14.31;70.42;101921.75;11228423;26;20485;-77
2024/04/11 16:29:59;;;;;;;10.77;5.43;;;;;;;14.90;67.52;101922.91;11259773;26;20015;-78
2024/04/11 16:35:03;;;;;;;8.38;5.18;;;;;;;15.08;66.22;101924.19;11227641;26;19999;-77
2024/04/11 16:40:05;;;;;;;;;;;;;;;15.00;66.56;101922.09;11245033;26;20018;-76
2024/04/11 16:50:09;;;;;;;5.95;5.03;;;;;;;14.59;67.90;101927.91;11284074;26;19998;-77
2024/04/11 16:55:23;;;;;;;8.10;4.70;;;;;;;14.42;69.52;101933.66;11295836;26;20849;-77
2024/04/11 17:00:30;;;;;;;10.98;5.60;;;;;;;14.47;69.55;101926.06;11251676;26;20346;-77
2024/04/11 17:05:40;;;;;;;9.52;5.53;;;;;;;14.46;70.38;101937.88;11240848;26;19999;-77
2024/04/11 17:10:43;;;;;;;8.20;5.43;;;;;;;14.56;70.29;101939.81;11235646;26;20011;-78
2024/04/11 17:16:14;;;;;;;7.00;5.32;;;;;;;14.63;70.11;101944.75;11269657;26;20010;-77
2024/04/11 17:21:18;;;;;;;9.05;5.65;;;;;;;14.38;71.00;101947.41;11237808;26;20310;-77
2024/04/11 17:26:20;;;;;;;10.57;6.45;;;;;;;14.17;71.54;101962.44;11244006;26;20003;-77
2024/04/11 17:31:24;;;;;;;11.68;6.32;;;;;;;14.27;71.62;101966.22;11263747;26;20000;-78
2024/04/11 17:41:57;;;;;;;11.13;6.47;;;;;;;14.30;72.07;101965.13;11252235;26;20014;-78
2024/04/11 17:57:31;;;;;;;13.32;7.15;;;;;;;13.99;73.93;101970.03;11230704;26;19996;-76
2024/04/11 18:02:34;;;;;;;13.18;7.80;;;;;;;13.99;75.38;101969.13;11228047;26;20011;-76
2024/04/11 18:07:37;;;;;;;15.57;7.63;;;;;;;14.19;74.78;101983.94;11247987;26;20797;-75
2024/04/11 18:12:39;;;;;;;17.20;9.70;;;;;;;13.79;77.07;101974.09;11236863;26;20019;-74
2024/04/11 18:17:42;;;;;;;14.38;9.05;;;;;;;14.03;76.08;101982.31;11234804;26;20931;-76
2024/04/11 18:22:48;;;;;;;16.48;10.18;;;;;;;14.07;76.47;101973.03;11257136;26;20009;-76
2024/04/11 18:27:50;;;;;;;16.17;8.63;;;;;;;13.97;76.76;101981.91;11234295;26;20007;-75
2024/04/11 18:32:52;;;;;;;12.90;9.10;;;;;;;14.10;76.67;101978.22;11243482;26;19996;-76
2024/04/11 18:37:54;;;;;;;14.13;9.63;;;;;;;14.25;76.31;101992.47;11251254;26;20008;-76
2024/04/11 18:42:57;;;;;;;10.60;9.07;;;;;;;14.16;76.37;101982.34;11235173;26;20007;-76
2024/04/11 18:48:01;;;;;;;11.00;8.73;;;;;;;14.24;76.05;101996.16;11241149;26;20164;-75
2024/04/11 18:53:03;;;;;;;10.98;9.48;;;;;;;14.18;76.69;102010.13;11236271;26;20032;-75
2024/04/11 18:58:13;;;;;;;14.65;9.65;;;;;;;13.96;77.63;102012.56;11257017;26;20018;-75
2024/04/11 19:03:15;;;;;;;13.95;9.27;;;;;;;13.90;78.19;102011.16;11222691;26;20007;-76
2024/04/11 19:08:25;;;;;;;16.10;9.30;;;;;;;13.91;79.30;102015.63;11227630;26;20420;-75
2024/04/11 19:13:27;;;;;;;15.93;10.35;;;;;;;13.91;79.28;102026.44;11238729;26;20019;-76
2024/04/11 19:18:33;;;;;;;14.90;9.33;;;;;;;13.74;80.13;102021.31;11233356;26;20066;-76
2024/04/11 19:23:40;;;;;;;13.88;8.98;;;;;;;13.80;80.03;102024.47;11254523;26;20583;-76
2024/04/11 19:28:44;;;;;;;14.80;9.40;;;;;;;13.80;80.26;102026.31;11256899;26;20003;-75
2024/04/11 19:33:50;;;;;;;15.77;9.20;;;;;;;13.81;79.91;102026.19;11229554;26;20091;-75
2024/04/11 19:38:55;;;;;;;15.98;9.95;;;;;;;13.69;80.85;102010.84;11229251;26;20010;-75
2024/04/11 19:44:00;;;;;;;11.18;9.55;;;;;;;13.84;79.96;102017.88;11228717;26;20006;-76
2024/04/11 19:49:03;;;;;;;14.48;8.88;;;;;;;13.86;79.99;102021.34;11272005;26;20006;-76
2024/04/11 19:54:05;;;;;;;16.35;9.55;;;;;;;13.63;81.39;102024.72;11218555;26;20021;-75
2024/04/11 19:59:07;;;;;;;14.07;9.80;;;;;;;13.85;80.61;102034.94;11262922;26;20447;-75
2024/04/11 20:04:36;;;;;;;17.70;10.15;;;;;;;13.78;80.65;102025.53;11235155;26;20007;-75
2024/04/11 20:09:38;;;;;;;13.30;9.80;;;;;;;13.73;81.49;102033.94;11231983;26;20019;-75
2024/04/11 20:14:48;;;;;;;13.63;9.80;;;;;;;13.77;80.72;102032.78;11267880;26;20004;-75
2024/04/11 20:19:58;;;;;;;15.10;10.35;;;;;;;13.84;80.91;102036.78;11233893;26;20011;-75
2024/04/11 20:25:08;;;;;;;12.23;9.23;;;;;;;13.91;80.33;102040.78;11239237;26;20019;-74
2024/04/11 20:30:19;;;;;;;14.70;9.98;;;;;;;13.78;81.16;102037.19;11245659;26;19998;-76
2024/04/11 20:35:41;;;;;;;16.40;10.27;;;;;;;13.87;80.20;102035.69;11221279;26;20043;-76
2024/04/11 20:40:44;;;;;;;15.10;9.85;;;;;;;13.80;80.81;102034.41;11247550;26;20003;-75
2024/04/11 20:45:47;;;;;;;17.98;10.88;;;;;;;13.84;80.88;102028.66;11231550;26;20019;-75
2024/04/11 21:33:33;;;;;;;21.90;14.10;;;;;;;13.78;81.46;102022.84;11226077;26;19998;-76
2024/04/11 21:38:38;;;;;;;21.02;14.10;;;;;;;13.86;80.48;102024.03;11247472;26;20021;-76
2024/04/11 21:43:40;;;;;;;24.35;15.60;;;;;;;13.91;80.41;102023.72;11259954;26;20144;-76
2024/04/11 21:48:46;;;;;;;24.90;15.15;;;;;;;13.93;79.88;102028.06;11240664;26;20034;-76
2024/04/11 21:53:50;;;;;;;29.70;16.20;;;;;;;13.92;79.97;102028.13;11276093;26;20462;-75
2024/04/11 21:58:57;;;;;;;28.92;16.85;;;;;;;13.92;79.50;102023.59;11220416;26;20019;-76
2024/04/11 22:04:00;;;;;;;26.77;16.77;;;;;;;13.93;79.75;102024.47;11250643;26;19999;-76
2024/04/11 22:09:11;;;;;;;29.25;17.90;;;;;;;13.97;79.77;102027.84;11245530;26;20008;-76
2024/04/11 22:14:30;;;;;;;25.13;16.85;;;;;;;13.99;79.53;102004.25;11235914;26;20015;-76
2024/04/11 22:19:38;;;;;;;22.35;15.43;;;;;;;13.96;79.66;102002.66;11233672;26;20014;-76
2024/04/11 22:24:46;;;;;;;26.75;16.52;;;;;;;13.93;80.01;102003.72;11241421;26;20018;-76
2024/04/11 22:29:53;;;;;;;24.73;15.77;;;;;;;13.91;80.37;101997.56;11252208;26;20520;-77
2024/04/11 22:34:57;;;;;;;21.48;14.55;;;;;;;13.88;80.74;101992.38;11201643;26;20019;-76
2024/04/11 22:40:00;;;;;;;24.48;13.73;;;;;;;13.84;81.28;101995.41;11252634;26;20010;-76
2024/04/11 22:45:14;;;;;;;19.30;13.93;;;;;;;13.79;81.59;101992.13;11234234;26;20041;-76
2024/04/11 22:50:16;;;;;;;22.55;13.90;;;;;;;13.81;81.41;101995.63;11219510;26;20459;-76
2024/04/11 22:55:21;;;;;;;21.23;13.68;;;;;;;13.83;81.76;101991.84;11229896;26;20487;-76
2024/04/11 23:00:27;;;;;;;18.67;13.70;;;;;;;13.88;81.50;101999.63;11257463;26;20019;-75
2024/04/11 23:05:31;;;;;;;21.77;12.73;;;;;;;13.89;81.29;101993.25;11247056;26;19999;-75
2024/04/11 23:10:43;;;;;;;20.67;13.15;;;;;;;13.88;81.42;101999.63;11237955;26;20445;-76
2024/04/11 23:15:48;;;;;;;21.17;12.25;;;;;;;13.87;81.55;101992.47;11240837;26;20000;-75
2024/04/11 23:21:06;;;;;;;16.90;11.63;;;;;;;13.87;81.92;101989.78;11238294;26;19999;-76
2024/04/11 23:26:13;;;;;;;15.63;11.60;;;;;;;13.86;82.21;101999.72;11233067;26;20040;-76
2024/04/11 23:31:19;;;;;;;16.65;11.65;;;;;;;13.84;82.53;102000.78;11206250;26;20081;-76
2024/04/11 23:36:24;;;;;;;19.15;12.25;;;;;;;13.81;82.87;101993.78;11229202;26;20050;-76
2024/04/11 23:41:32;;;;;;;19.30;12.50;;;;;;;13.80;82.87;102004.69;11245918;26;19999;-76
2024/04/11 23:46:40;;;;;;;18.70;12.18;;;;;;;13.73;83.41;102003.38;11223842;26;20004;-76
2024/04/11 23:51:48;;;;;;;22.30;13.32;;;;;;;13.68;83.70;102006.38;11222968;26;20478;-76
2024/04/11 23:57:01;;;;;;;19.27;13.68;;;;;;;13.67;83.88;102000.13;11227319;26;20011;-76
